^^
Station Historical Data
Daily Summary for July 22, 2017 Units:  Both    English   Metric
« Previous Day
Next Day »
Daily Weekly Monthly Yearly Custom
  High: Low: Average:
Temperature: 75.7 °F /  24.3 °C 40.8 °F /  4.9 °C 56.4 °F /  13.6 °C
Dew Point: 28.2 °F /  -2.1 °C 13.8 °F /  -10.1 °C 19.7 °F /  -6.8 °C
Humidity: 39% 12% 26%
Wind Speed: 6.9mph /  11.1km/h - 0.5mph /  0.8km/h
Wind Gust: 11.0mph /  17.7km/h - -
Wind- - West
Pressure: 30.12 in /  1019.9 hPa 29.99 in /  1015.5 hPa -
Precipitation: 0.00 in /  0 mm    
Historical Graphs
 
 
Tabular Data for July 22, 2017
Time Temperature Dew Point Pressure Wind Wind Speed Wind Gust Humidity Rainfall Rate (Hourly) solar Conditions
00:03 46.8 °F /  8.2 °C 14.5 °F /  -9.7 °C 30.06in /  1017.8hPa Calm     27% 0.00in /  0mm 0.0 W/m2
00:09 46.4 °F /  8 °C 15.1 °F /  -9.4 °C 30.06in /  1017.8hPa Calm     28% 0.00in /  0mm 0.0 W/m2
00:15 46.0 °F /  7.8 °C 14.7 °F /  -9.6 °C 30.06in /  1017.8hPa Calm     28% 0.00in /  0mm 0.0 W/m2
00:21 45.9 °F /  7.7 °C 13.8 °F /  -10.1 °C 30.06in /  1017.8hPa Calm     27% 0.00in /  0mm 0.0 W/m2
00:27 46.0 °F /  7.8 °C 14.0 °F /  -10 °C 30.06in /  1017.8hPa Calm     27% 0.00in /  0mm 0.0 W/m2
00:33 46.4 °F /  8 °C 14.2 °F /  -9.9 °C 30.06in /  1017.8hPa Calm     27% 0.00in /  0mm 0.0 W/m2
00:40 46.6 °F /  8.1 °C 14.4 °F /  -9.8 °C 30.06in /  1017.8hPa Calm     27% 0.00in /  0mm 0.0 W/m2
00:46 46.8 °F /  8.2 °C 15.4 °F /  -9.2 °C 30.06in /  1017.8hPa Calm     28% 0.00in /  0mm 0.0 W/m2
00:52 46.8 °F /  8.2 °C 14.5 °F /  -9.7 °C 30.06in /  1017.8hPa Calm     27% 0.00in /  0mm 0.0 W/m2
00:58 46.8 °F /  8.2 °C 14.5 °F /  -9.7 °C 30.06in /  1017.8hPa Calm     27% 0.00in /  0mm 0.0 W/m2
01:04 46.8 °F /  8.2 °C 14.5 °F /  -9.7 °C 30.05in /  1017.5hPa Calm   1.0mph /  1.6km/h 27% 0.00in /  0mm 0.0 W/m2
01:10 46.6 °F /  8.1 °C 15.3 °F /  -9.3 °C 30.05in /  1017.5hPa Calm   2.0mph /  3.2km/h 28% 0.00in /  0mm 0.0 W/m2
01:16 46.4 °F /  8 °C 15.1 °F /  -9.4 °C 30.05in /  1017.5hPa Calm     28% 0.00in /  0mm 0.0 W/m2
01:23 46.2 °F /  7.9 °C 14.0 °F /  -10 °C 30.05in /  1017.5hPa Calm     27% 0.00in /  0mm 0.0 W/m2
01:29 46.0 °F /  7.8 °C 14.7 °F /  -9.6 °C 30.05in /  1017.5hPa Calm     28% 0.00in /  0mm 0.0 W/m2
01:35 45.9 °F /  7.7 °C 14.5 °F /  -9.7 °C 30.04in /  1017.2hPa Calm     28% 0.00in /  0mm 0.0 W/m2
01:41 45.9 °F /  7.7 °C 14.5 °F /  -9.7 °C 30.04in /  1017.2hPa Calm     28% 0.00in /  0mm 0.0 W/m2
01:47 45.9 °F /  7.7 °C 14.5 °F /  -9.7 °C 30.04in /  1017.2hPa Calm   1.0mph /  1.6km/h 28% 0.00in /  0mm 0.0 W/m2
01:53 46.0 °F /  7.8 °C 14.7 °F /  -9.6 °C 30.04in /  1017.2hPa Calm   3.0mph /  4.8km/h 28% 0.00in /  0mm 0.0 W/m2
01:59 46.0 °F /  7.8 °C 14.7 °F /  -9.6 °C 30.04in /  1017.2hPa Calm   1.0mph /  1.6km/h 28% 0.00in /  0mm 0.0 W/m2
02:06 46.0 °F /  7.8 °C 14.7 °F /  -9.6 °C 30.04in /  1017.2hPa Calm   2.0mph /  3.2km/h 28% 0.00in /  0mm 0.0 W/m2
02:12 46.0 °F /  7.8 °C 15.6 °F /  -9.1 °C 30.03in /  1016.8hPa Calm     29% 0.00in /  0mm 0.0 W/m2
02:18 45.9 °F /  7.7 °C 15.4 °F /  -9.2 °C 30.03in /  1016.8hPa Calm     29% 0.00in /  0mm 0.0 W/m2
02:24 45.7 °F /  7.6 °C 15.3 °F /  -9.3 °C 30.03in /  1016.8hPa Calm     29% 0.00in /  0mm 0.0 W/m2
02:30 45.5 °F /  7.5 °C 15.1 °F /  -9.4 °C 30.03in /  1016.8hPa Calm   1.0mph /  1.6km/h 29% 0.00in /  0mm 0.0 W/m2
02:36 45.1 °F /  7.3 °C 15.6 °F /  -9.1 °C 30.03in /  1016.8hPa Calm     30% 0.00in /  0mm 0.0 W/m2
02:42 44.2 °F /  6.8 °C 15.4 °F /  -9.2 °C 30.03in /  1016.8hPa Calm     31% 0.00in /  0mm 0.0 W/m2
02:48 43.9 °F /  6.6 °C 16.0 °F /  -8.9 °C 30.03in /  1016.8hPa Calm     32% 0.00in /  0mm 0.0 W/m2
02:54 43.5 °F /  6.4 °C 17.1 °F /  -8.3 °C 30.03in /  1016.8hPa Calm     34% 0.00in /  0mm 0.0 W/m2
03:01 43.2 °F /  6.2 °C 16.7 °F /  -8.5 °C 30.03in /  1016.8hPa Calm     34% 0.00in /  0mm 0.0 W/m2
03:07 43.0 °F /  6.1 °C 15.8 °F /  -9 °C 30.03in /  1016.8hPa Calm     33% 0.00in /  0mm 0.0 W/m2
03:13 43.3 °F /  6.3 °C 16.2 °F /  -8.8 °C 30.03in /  1016.8hPa Calm     33% 0.00in /  0mm 0.0 W/m2
03:19 43.9 °F /  6.6 °C 16.0 °F /  -8.9 °C 30.03in /  1016.8hPa Calm     32% 0.00in /  0mm 0.0 W/m2
03:25 43.9 °F /  6.6 °C 16.7 °F /  -8.5 °C 30.03in /  1016.8hPa Calm     33% 0.00in /  0mm 0.0 W/m2
03:31 43.9 °F /  6.6 °C 16.7 °F /  -8.5 °C 30.03in /  1016.8hPa Calm     33% 0.00in /  0mm 0.0 W/m2
03:37 43.7 °F /  6.5 °C 15.8 °F /  -9 °C 30.03in /  1016.8hPa East 2.0mph /  3.2km/h 2.0mph /  3.2km/h 32% 0.00in /  0mm 0.0 W/m2
03:43 43.5 °F /  6.4 °C 14.9 °F /  -9.5 °C 30.03in /  1016.8hPa Calm   4.0mph /  6.4km/h 31% 0.00in /  0mm 0.0 W/m2
03:50 43.9 °F /  6.6 °C 16.0 °F /  -8.9 °C 30.03in /  1016.8hPa Calm     32% 0.00in /  0mm 0.0 W/m2
03:56 43.9 °F /  6.6 °C 16.0 °F /  -8.9 °C 30.04in /  1017.2hPa Calm   1.0mph /  1.6km/h 32% 0.00in /  0mm 0.0 W/m2
04:02 44.1 °F /  6.7 °C 16.2 °F /  -8.8 °C 30.03in /  1016.8hPa Calm     32% 0.00in /  0mm 0.0 W/m2
04:08 43.9 °F /  6.6 °C 16.0 °F /  -8.9 °C 30.03in /  1016.8hPa Calm     32% 0.00in /  0mm 0.0 W/m2
04:14 43.9 °F /  6.6 °C 16.7 °F /  -8.5 °C 30.03in /  1016.8hPa Calm     33% 0.00in /  0mm 0.0 W/m2
04:20 43.5 °F /  6.4 °C 16.3 °F /  -8.7 °C 30.04in /  1017.2hPa Calm   1.0mph /  1.6km/h 33% 0.00in /  0mm 0.0 W/m2
04:26 43.7 °F /  6.5 °C 15.8 °F /  -9 °C 30.04in /  1017.2hPa Calm     32% 0.00in /  0mm 0.0 W/m2
04:33 43.9 °F /  6.6 °C 16.0 °F /  -8.9 °C 30.04in /  1017.2hPa Calm   2.0mph /  3.2km/h 32% 0.00in /  0mm 0.0 W/m2
04:39 44.1 °F /  6.7 °C 16.2 °F /  -8.8 °C 30.04in /  1017.2hPa Calm     32% 0.00in /  0mm 0.0 W/m2
04:45 44.1 °F /  6.7 °C 16.2 °F /  -8.8 °C 30.04in /  1017.2hPa Calm   1.0mph /  1.6km/h 32% 0.00in /  0mm 0.0 W/m2
04:51 43.9 °F /  6.6 °C 16.7 °F /  -8.5 °C 30.04in /  1017.2hPa Calm     33% 0.00in /  0mm 0.0 W/m2
04:57 43.7 °F /  6.5 °C 17.2 °F /  -8.2 °C 30.04in /  1017.2hPa Calm     34% 0.00in /  0mm 0.0 W/m2
05:03 43.3 °F /  6.3 °C 16.2 °F /  -8.8 °C 30.04in /  1017.2hPa Calm   3.0mph /  4.8km/h 33% 0.00in /  0mm 0.0 W/m2
05:09 43.2 °F /  6.2 °C 16.0 °F /  -8.9 °C 30.04in /  1017.2hPa Calm   2.0mph /  3.2km/h 33% 0.00in /  0mm 0.0 W/m2
05:15 43.0 °F /  6.1 °C 16.5 °F /  -8.6 °C 30.04in /  1017.2hPa Calm     34% 0.00in /  0mm 0.0 W/m2
05:22 42.4 °F /  5.8 °C 16.7 °F /  -8.5 °C 30.05in /  1017.5hPa Calm     35% 0.00in /  0mm 0.0 W/m2
05:28 42.3 °F /  5.7 °C 15.8 °F /  -9 °C 30.05in /  1017.5hPa Calm     34% 0.00in /  0mm 0.0 W/m2
05:34 42.3 °F /  5.7 °C 16.5 °F /  -8.6 °C 30.05in /  1017.5hPa Calm     35% 0.00in /  0mm 0.0 W/m2
05:40 42.3 °F /  5.7 °C 16.5 °F /  -8.6 °C 30.05in /  1017.5hPa Calm     35% 0.00in /  0mm 0.0 W/m2
05:46 42.1 °F /  5.6 °C 16.3 °F /  -8.7 °C 30.06in /  1017.8hPa Calm     35% 0.00in /  0mm 0.0 W/m2
05:52 41.7 °F /  5.4 °C 16.2 °F /  -8.8 °C 30.06in /  1017.8hPa Calm     35% 0.00in /  0mm 0.0 W/m2
05:59 41.7 °F /  5.4 °C 16.7 °F /  -8.5 °C 30.06in /  1017.8hPa Calm     36% 0.00in /  0mm 0.0 W/m2
06:05 41.7 °F /  5.4 °C 16.2 °F /  -8.8 °C 30.06in /  1017.8hPa Calm     35% 0.00in /  0mm 0.0 W/m2
06:11 41.7 °F /  5.4 °C 16.2 °F /  -8.8 °C 30.06in /  1017.8hPa Calm     35% 0.00in /  0mm 0.0 W/m2
06:17 41.5 °F /  5.3 °C 16.0 °F /  -8.9 °C 30.06in /  1017.8hPa Calm     35% 0.00in /  0mm 0.0 W/m2
06:23 41.5 °F /  5.3 °C 16.5 °F /  -8.6 °C 30.07in /  1018.2hPa Calm     36% 0.00in /  0mm 0.0 W/m2
06:29 41.4 °F /  5.2 °C 15.8 °F /  -9 °C 30.07in /  1018.2hPa Calm   1.0mph /  1.6km/h 35% 0.00in /  0mm 0.0 W/m2
06:35 41.5 °F /  5.3 °C 16.0 °F /  -8.9 °C 30.07in /  1018.2hPa Calm     35% 0.00in /  0mm 5.0 W/m2
06:41 41.5 °F /  5.3 °C 16.5 °F /  -8.6 °C 30.07in /  1018.2hPa Calm     36% 0.00in /  0mm 7.0 W/m2
06:47 41.4 °F /  5.2 °C 17.1 °F /  -8.3 °C 30.07in /  1018.2hPa Calm     37% 0.00in /  0mm 9.0 W/m2
06:53 41.2 °F /  5.1 °C 16.9 °F /  -8.4 °C 30.08in /  1018.5hPa Calm     37% 0.00in /  0mm 11.0 W/m2
07:00 41.0 °F /  5 °C 17.4 °F /  -8.1 °C 30.08in /  1018.5hPa Calm     38% 0.00in /  0mm 12.0 W/m2
07:06 40.8 °F /  4.9 °C 17.2 °F /  -8.2 °C 30.08in /  1018.5hPa Calm     38% 0.00in /  0mm 14.0 W/m2
07:12 40.8 °F /  4.9 °C 17.2 °F /  -8.2 °C 30.09in /  1018.8hPa Calm     38% 0.00in /  0mm 16.0 W/m2
07:18 41.2 °F /  5.1 °C 17.4 °F /  -8.1 °C 30.09in /  1018.8hPa Calm     38% 0.00in /  0mm 16.0 W/m2
07:24 41.7 °F /  5.4 °C 18.0 °F /  -7.8 °C 30.09in /  1018.8hPa Calm     38% 0.00in /  0mm 18.0 W/m2
07:30 42.3 °F /  5.7 °C 18.5 °F /  -7.5 °C 30.09in /  1018.8hPa Calm   1.0mph /  1.6km/h 38% 0.00in /  0mm 19.0 W/m2
07:36 42.4 °F /  5.8 °C 19.2 °F /  -7.1 °C 30.10in /  1019.2hPa Calm     39% 0.00in /  0mm 21.0 W/m2
07:42 43.0 °F /  6.1 °C 19.0 °F /  -7.2 °C 30.10in /  1019.2hPa Calm     38% 0.00in /  0mm 21.0 W/m2
07:48 43.5 °F /  6.4 °C 19.6 °F /  -6.9 °C 30.10in /  1019.2hPa Calm     38% 0.00in /  0mm 23.0 W/m2
07:54 43.9 °F /  6.6 °C 19.9 °F /  -6.7 °C 30.10in /  1019.2hPa Calm     38% 0.00in /  0mm 23.0 W/m2
08:00 44.4 °F /  6.9 °C 20.5 °F /  -6.4 °C 30.10in /  1019.2hPa Calm     38% 0.00in /  0mm 25.0 W/m2
08:06 45.3 °F /  7.4 °C 21.7 °F /  -5.7 °C 30.10in /  1019.2hPa Calm     39% 0.00in /  0mm 25.0 W/m2
08:12 46.6 °F /  8.1 °C 21.0 °F /  -6.1 °C 30.11in /  1019.5hPa Calm     36% 0.00in /  0mm 28.0 W/m2
08:18 48.6 °F /  9.2 °C 22.1 °F /  -5.5 °C 30.11in /  1019.5hPa Calm     35% 0.00in /  0mm 350.0 W/m2
08:24 50.5 °F /  10.3 °C 21.7 °F /  -5.7 °C 30.11in /  1019.5hPa Calm     32% 0.00in /  0mm 366.0 W/m2
08:30 52.2 °F /  11.2 °C 20.8 °F /  -6.2 °C 30.11in /  1019.5hPa Calm     29% 0.00in /  0mm 385.0 W/m2
08:36 54.0 °F /  12.2 °C 22.5 °F /  -5.3 °C 30.11in /  1019.5hPa Calm     29% 0.00in /  0mm 404.0 W/m2
08:38 54.7 °F /  12.6 °C 23.0 °F /  -5 °C 30.11in /  1019.5hPa Calm     29% 0.00in /  0mm 413.0 W/m2
08:44 56.7 °F /  13.7 °C 23.0 °F /  -5 °C 30.11in /  1019.5hPa Calm     27% 0.00in /  0mm 431.0 W/m2
08:50 58.6 °F /  14.8 °C 24.8 °F /  -4 °C 30.11in /  1019.5hPa Calm   3.0mph /  4.8km/h 27% 0.00in /  0mm 450.0 W/m2
08:56 60.6 °F /  15.9 °C 25.5 °F /  -3.6 °C 30.12in /  1019.9hPa Calm   1.0mph /  1.6km/h 26% 0.00in /  0mm 469.0 W/m2
09:02 62.4 °F /  16.9 °C 25.2 °F /  -3.8 °C 30.11in /  1019.5hPa Calm     24% 0.00in /  0mm 485.0 W/m2
09:08 63.5 °F /  17.5 °C 25.0 °F /  -3.9 °C 30.12in /  1019.9hPa Calm     23% 0.00in /  0mm 503.0 W/m2
09:14 64.0 °F /  17.8 °C 25.5 °F /  -3.6 °C 30.12in /  1019.9hPa North 0.9mph /  1.4km/h 2.0mph /  3.2km/h 23% 0.00in /  0mm 519.0 W/m2
09:20 64.6 °F /  18.1 °C 25.9 °F /  -3.4 °C 30.11in /  1019.5hPa Calm   2.0mph /  3.2km/h 23% 0.00in /  0mm 534.0 W/m2
09:26 65.3 °F /  18.5 °C 25.5 °F /  -3.6 °C 30.11in /  1019.5hPa Calm   1.0mph /  1.6km/h 22% 0.00in /  0mm 547.0 W/m2
09:32 65.7 °F /  18.7 °C 25.7 °F /  -3.5 °C 30.11in /  1019.5hPa NW 4.0mph /  6.4km/h 5.0mph /  8km/h 22% 0.00in /  0mm 563.0 W/m2
09:38 66.0 °F /  18.9 °C 26.1 °F /  -3.3 °C 30.11in /  1019.5hPa NW 2.9mph /  4.7km/h 4.0mph /  6.4km/h 22% 0.00in /  0mm 577.0 W/m2
09:44 66.6 °F /  19.2 °C 26.6 °F /  -3 °C 30.11in /  1019.5hPa Calm   2.0mph /  3.2km/h 22% 0.00in /  0mm 589.0 W/m2
09:50 66.7 °F /  19.3 °C 26.6 °F /  -3 °C 30.11in /  1019.5hPa NNE 2.9mph /  4.7km/h 3.0mph /  4.8km/h 22% 0.00in /  0mm 599.0 W/m2
09:56 67.5 °F /  19.7 °C 26.2 °F /  -3.2 °C 30.11in /  1019.5hPa Calm   2.0mph /  3.2km/h 21% 0.00in /  0mm 612.0 W/m2
10:02 67.6 °F /  19.8 °C 26.2 °F /  -3.2 °C 30.11in /  1019.5hPa Calm   1.0mph /  1.6km/h 21% 0.00in /  0mm 626.0 W/m2
10:08 68.2 °F /  20.1 °C 25.5 °F /  -3.6 °C 30.11in /  1019.5hPa Calm   4.0mph /  6.4km/h 20% 0.00in /  0mm 635.0 W/m2
10:14 68.5 °F /  20.3 °C 28.2 °F /  -2.1 °C 30.11in /  1019.5hPa Calm   5.0mph /  8km/h 22% 0.00in /  0mm 647.0 W/m2
10:20 68.7 °F /  20.4 °C 26.1 °F /  -3.3 °C 30.10in /  1019.2hPa Calm   3.0mph /  4.8km/h 20% 0.00in /  0mm 656.0 W/m2
10:26 68.4 °F /  20.2 °C 25.7 °F /  -3.5 °C 30.10in /  1019.2hPa North 2.0mph /  3.2km/h 4.0mph /  6.4km/h 20% 0.00in /  0mm 666.0 W/m2
10:32 68.5 °F /  20.3 °C 27.1 °F /  -2.7 °C 30.10in /  1019.2hPa NNW 0.9mph /  1.4km/h 5.0mph /  8km/h 21% 0.00in /  0mm 670.0 W/m2
10:38 69.1 °F /  20.6 °C 26.2 °F /  -3.2 °C 30.10in /  1019.2hPa Calm   1.0mph /  1.6km/h 20% 0.00in /  0mm 682.0 W/m2
10:44 69.3 °F /  20.7 °C 25.2 °F /  -3.8 °C 30.10in /  1019.2hPa WNW 0.9mph /  1.4km/h 3.0mph /  4.8km/h 19% 0.00in /  0mm 693.0 W/m2
10:50 69.6 °F /  20.9 °C 25.5 °F /  -3.6 °C 30.09in /  1018.8hPa Calm   7.0mph /  11.3km/h 19% 0.00in /  0mm 698.0 W/m2
10:56 70.0 °F /  21.1 °C 24.4 °F /  -4.2 °C 30.09in /  1018.8hPa Calm   3.0mph /  4.8km/h 18% 0.00in /  0mm 705.0 W/m2
11:02 70.2 °F /  21.2 °C 24.6 °F /  -4.1 °C 30.09in /  1018.8hPa Calm   6.0mph /  9.7km/h 18% 0.00in /  0mm 710.0 W/m2
11:08 70.5 °F /  21.4 °C 25.0 °F /  -3.9 °C 30.09in /  1018.8hPa Calm   3.0mph /  4.8km/h 18% 0.00in /  0mm 717.0 W/m2
11:14 70.7 °F /  21.5 °C 25.2 °F /  -3.8 °C 30.09in /  1018.8hPa NNW 2.0mph /  3.2km/h 7.0mph /  11.3km/h 18% 0.00in /  0mm 722.0 W/m2
11:20 70.9 °F /  21.6 °C 25.3 °F /  -3.7 °C 30.09in /  1018.8hPa NNW 2.9mph /  4.7km/h 7.0mph /  11.3km/h 18% 0.00in /  0mm 728.0 W/m2
11:26 71.2 °F /  21.8 °C 24.3 °F /  -4.3 °C 30.08in /  1018.5hPa North 0.9mph /  1.4km/h 4.0mph /  6.4km/h 17% 0.00in /  0mm 731.0 W/m2
11:32 71.6 °F /  22 °C 23.0 °F /  -5 °C 30.08in /  1018.5hPa North 2.9mph /  4.7km/h 9.0mph /  14.5km/h 16% 0.00in /  0mm 731.0 W/m2
11:38 71.6 °F /  22 °C 24.4 °F /  -4.2 °C 30.08in /  1018.5hPa Calm   1.0mph /  1.6km/h 17% 0.00in /  0mm 735.0 W/m2
11:44 71.8 °F /  22.1 °C 23.2 °F /  -4.9 °C 30.07in /  1018.2hPa NNW 4.0mph /  6.4km/h 4.0mph /  6.4km/h 16% 0.00in /  0mm 737.0 W/m2
11:50 72.0 °F /  22.2 °C 23.4 °F /  -4.8 °C 30.07in /  1018.2hPa NW 2.9mph /  4.7km/h 5.0mph /  8km/h 16% 0.00in /  0mm 731.0 W/m2
11:56 71.6 °F /  22 °C 23.0 °F /  -5 °C 30.07in /  1018.2hPa WSW 2.0mph /  3.2km/h 8.0mph /  12.9km/h 16% 0.00in /  0mm 735.0 W/m2
12:02 71.4 °F /  21.9 °C 24.3 °F /  -4.3 °C 30.06in /  1017.8hPa North 0.9mph /  1.4km/h 3.0mph /  4.8km/h 17% 0.00in /  0mm 735.0 W/m2
12:08 72.0 °F /  22.2 °C 23.4 °F /  -4.8 °C 30.06in /  1017.8hPa Calm   3.0mph /  4.8km/h 16% 0.00in /  0mm 733.0 W/m2
12:14 72.0 °F /  22.2 °C 24.8 °F /  -4 °C 30.06in /  1017.8hPa Calm   2.0mph /  3.2km/h 17% 0.00in /  0mm 729.0 W/m2
12:20 72.0 °F /  22.2 °C 23.4 °F /  -4.8 °C 30.06in /  1017.8hPa Calm   2.0mph /  3.2km/h 16% 0.00in /  0mm 728.0 W/m2
12:26 72.3 °F /  22.4 °C 23.5 °F /  -4.7 °C 30.05in /  1017.5hPa Calm   1.0mph /  1.6km/h 16% 0.00in /  0mm 721.0 W/m2
12:32 72.3 °F /  22.4 °C 22.1 °F /  -5.5 °C 30.05in /  1017.5hPa Calm   2.0mph /  3.2km/h 15% 0.00in /  0mm 721.0 W/m2
12:38 72.3 °F /  22.4 °C 23.5 °F /  -4.7 °C 30.04in /  1017.2hPa West 4.9mph /  7.9km/h 5.0mph /  8km/h 16% 0.00in /  0mm 715.0 W/m2
12:44 72.7 °F /  22.6 °C 22.3 °F /  -5.4 °C 30.04in /  1017.2hPa Calm   6.0mph /  9.7km/h 15% 0.00in /  0mm 710.0 W/m2
12:50 73.0 °F /  22.8 °C 22.6 °F /  -5.2 °C 30.03in /  1016.8hPa SSE 2.0mph /  3.2km/h 3.0mph /  4.8km/h 15% 0.00in /  0mm 703.0 W/m2
12:56 73.2 °F /  22.9 °C 22.8 °F /  -5.1 °C 30.03in /  1016.8hPa NNW 0.9mph /  1.4km/h 1.0mph /  1.6km/h 15% 0.00in /  0mm 700.0 W/m2
13:02 73.9 °F /  23.3 °C 23.4 °F /  -4.8 °C 30.03in /  1016.8hPa Calm   1.0mph /  1.6km/h 15% 0.00in /  0mm 689.0 W/m2
13:08 73.8 °F /  23.2 °C 21.6 °F /  -5.8 °C 30.03in /  1016.8hPa NNW 2.0mph /  3.2km/h 7.0mph /  11.3km/h 14% 0.00in /  0mm 684.0 W/m2
13:14 73.8 °F /  23.2 °C 23.2 °F /  -4.9 °C 30.02in /  1016.5hPa North 2.0mph /  3.2km/h 3.0mph /  4.8km/h 15% 0.00in /  0mm 673.0 W/m2
13:20 73.4 °F /  23 °C 23.0 °F /  -5 °C 30.02in /  1016.5hPa Calm     15% 0.00in /  0mm 659.0 W/m2
13:26 73.6 °F /  23.1 °C 23.0 °F /  -5 °C 30.01in /  1016.1hPa NNW 4.0mph /  6.4km/h 7.0mph /  11.3km/h 15% 0.00in /  0mm 652.0 W/m2
13:32 73.9 °F /  23.3 °C 21.7 °F /  -5.7 °C 30.01in /  1016.1hPa Calm   6.0mph /  9.7km/h 14% 0.00in /  0mm 643.0 W/m2
13:38 74.5 °F /  23.6 °C 22.1 °F /  -5.5 °C 30.01in /  1016.1hPa Calm   4.0mph /  6.4km/h 14% 0.00in /  0mm 631.0 W/m2
13:44 74.8 °F /  23.8 °C 22.5 °F /  -5.3 °C 30.01in /  1016.1hPa Calm   2.0mph /  3.2km/h 14% 0.00in /  0mm 621.0 W/m2
13:51 75.2 °F /  24 °C 21.0 °F /  -6.1 °C 30.00in /  1015.8hPa North 0.9mph /  1.4km/h 4.0mph /  6.4km/h 13% 0.00in /  0mm 615.0 W/m2
13:56 75.0 °F /  23.9 °C 22.6 °F /  -5.2 °C 30.01in /  1016.1hPa West 0.9mph /  1.4km/h 7.0mph /  11.3km/h 14% 0.00in /  0mm 603.0 W/m2
14:02 75.0 °F /  23.9 °C 22.6 °F /  -5.2 °C 30.00in /  1015.8hPa WNW 2.0mph /  3.2km/h 4.0mph /  6.4km/h 14% 0.00in /  0mm 587.0 W/m2
14:08 75.2 °F /  24 °C 21.0 °F /  -6.1 °C 30.00in /  1015.8hPa SSW 0.9mph /  1.4km/h 3.0mph /  4.8km/h 13% 0.00in /  0mm 571.0 W/m2
14:15 75.0 °F /  23.9 °C 22.6 °F /  -5.2 °C 30.00in /  1015.8hPa WSW 2.9mph /  4.7km/h 4.0mph /  6.4km/h 14% 0.00in /  0mm 561.0 W/m2
14:21 74.8 °F /  23.8 °C 20.7 °F /  -6.3 °C 29.99in /  1015.5hPa NNW 4.0mph /  6.4km/h 4.0mph /  6.4km/h 13% 0.00in /  0mm 545.0 W/m2
14:27 75.2 °F /  24 °C 22.6 °F /  -5.2 °C 30.00in /  1015.8hPa WSW 0.9mph /  1.4km/h 3.0mph /  4.8km/h 14% 0.00in /  0mm 527.0 W/m2
14:33 75.4 °F /  24.1 °C 21.2 °F /  -6 °C 29.99in /  1015.5hPa SW 0.9mph /  1.4km/h 3.0mph /  4.8km/h 13% 0.00in /  0mm 512.0 W/m2
14:39 75.4 °F /  24.1 °C 19.2 °F /  -7.1 °C 29.99in /  1015.5hPa WNW 0.9mph /  1.4km/h 7.0mph /  11.3km/h 12% 0.00in /  0mm 499.0 W/m2
14:45 75.4 °F /  24.1 °C 19.2 °F /  -7.1 °C 29.99in /  1015.5hPa West 2.9mph /  4.7km/h 6.0mph /  9.7km/h 12% 0.00in /  0mm 483.0 W/m2
14:51 75.6 °F /  24.2 °C 19.4 °F /  -7 °C 29.99in /  1015.5hPa NW 6.9mph /  11.1km/h 7.0mph /  11.3km/h 12% 0.00in /  0mm 468.0 W/m2
14:57 75.4 °F /  24.1 °C 19.2 °F /  -7.1 °C 30.00in /  1015.8hPa Calm   7.0mph /  11.3km/h 12% 0.00in /  0mm 450.0 W/m2
15:03 75.6 °F /  24.2 °C 19.4 °F /  -7 °C 29.99in /  1015.5hPa Calm   5.0mph /  8km/h 12% 0.00in /  0mm 432.0 W/m2
15:09 75.7 °F /  24.3 °C 19.6 °F /  -6.9 °C 29.99in /  1015.5hPa NNW 6.9mph /  11.1km/h 7.0mph /  11.3km/h 12% 0.00in /  0mm 415.0 W/m2
15:15 75.6 °F /  24.2 °C 19.4 °F /  -7 °C 29.99in /  1015.5hPa WSW 4.0mph /  6.4km/h 11.0mph /  17.7km/h 12% 0.00in /  0mm 396.0 W/m2
15:21 74.8 °F /  23.8 °C 18.9 °F /  -7.3 °C 30.00in /  1015.8hPa Calm   5.0mph /  8km/h 12% 0.00in /  0mm 374.0 W/m2
15:27 74.7 °F /  23.7 °C 20.5 °F /  -6.4 °C 30.00in /  1015.8hPa WSW 0.9mph /  1.4km/h 4.0mph /  6.4km/h 13% 0.00in /  0mm 355.0 W/m2
15:33 74.3 °F /  23.5 °C 18.3 °F /  -7.6 °C 29.99in /  1015.5hPa WNW 4.0mph /  6.4km/h 6.0mph /  9.7km/h 12% 0.00in /  0mm 336.0 W/m2
15:39 73.9 °F /  23.3 °C 19.9 °F /  -6.7 °C 29.99in /  1015.5hPa Calm   3.0mph /  4.8km/h 13% 0.00in /  0mm 60.0 W/m2
15:45 73.8 °F /  23.2 °C 19.8 °F /  -6.8 °C 30.00in /  1015.8hPa West 4.9mph /  7.9km/h 7.0mph /  11.3km/h 13% 0.00in /  0mm 40.0 W/m2
15:51 73.4 °F /  23 °C 19.6 °F /  -6.9 °C 30.00in /  1015.8hPa West 2.0mph /  3.2km/h 5.0mph /  8km/h 13% 0.00in /  0mm 37.0 W/m2
15:58 73.2 °F /  22.9 °C 19.4 °F /  -7 °C 30.00in /  1015.8hPa WSW 0.9mph /  1.4km/h 9.0mph /  14.5km/h 13% 0.00in /  0mm 35.0 W/m2
16:04 73.0 °F /  22.8 °C 19.2 °F /  -7.1 °C 30.00in /  1015.8hPa Calm   4.0mph /  6.4km/h 13% 0.00in /  0mm 33.0 W/m2
16:10 72.7 °F /  22.6 °C 19.0 °F /  -7.2 °C 30.00in /  1015.8hPa WNW 0.9mph /  1.4km/h 2.0mph /  3.2km/h 13% 0.00in /  0mm 30.0 W/m2
16:16 72.3 °F /  22.4 °C 18.7 °F /  -7.4 °C 30.00in /  1015.8hPa West 2.9mph /  4.7km/h 6.0mph /  9.7km/h 13% 0.00in /  0mm 26.0 W/m2
16:22 72.1 °F /  22.3 °C 20.3 °F /  -6.5 °C 30.00in /  1015.8hPa WNW 0.9mph /  1.4km/h 6.0mph /  9.7km/h 14% 0.00in /  0mm 25.0 W/m2
16:28 71.8 °F /  22.1 °C 18.3 °F /  -7.6 °C 30.01in /  1016.1hPa West 2.9mph /  4.7km/h 6.0mph /  9.7km/h 13% 0.00in /  0mm 23.0 W/m2
16:34 71.6 °F /  22 °C 19.9 °F /  -6.7 °C 30.01in /  1016.1hPa West 2.0mph /  3.2km/h 7.0mph /  11.3km/h 14% 0.00in /  0mm 19.0 W/m2
16:40 71.4 °F /  21.9 °C 19.8 °F /  -6.8 °C 30.01in /  1016.1hPa WSW 4.0mph /  6.4km/h 5.0mph /  8km/h 14% 0.00in /  0mm 18.0 W/m2
16:47 71.2 °F /  21.8 °C 19.6 °F /  -6.9 °C 30.01in /  1016.1hPa West 2.9mph /  4.7km/h 3.0mph /  4.8km/h 14% 0.00in /  0mm 18.0 W/m2
16:53 70.9 °F /  21.6 °C 19.2 °F /  -7.1 °C 30.01in /  1016.1hPa West 2.0mph /  3.2km/h 5.0mph /  8km/h 14% 0.00in /  0mm 16.0 W/m2
16:59 70.5 °F /  21.4 °C 19.0 °F /  -7.2 °C 30.01in /  1016.1hPa SW 0.9mph /  1.4km/h 4.0mph /  6.4km/h 14% 0.00in /  0mm 18.0 W/m2
17:05 70.2 °F /  21.2 °C 18.7 °F /  -7.4 °C 30.01in /  1016.1hPa Calm   6.0mph /  9.7km/h 14% 0.00in /  0mm 12.0 W/m2
17:11 69.6 °F /  20.9 °C 19.9 °F /  -6.7 °C 30.01in /  1016.1hPa WSW 2.0mph /  3.2km/h 3.0mph /  4.8km/h 15% 0.00in /  0mm 11.0 W/m2
17:17 69.3 °F /  20.7 °C 19.6 °F /  -6.9 °C 30.01in /  1016.1hPa West 0.9mph /  1.4km/h 1.0mph /  1.6km/h 15% 0.00in /  0mm 7.0 W/m2
17:24 68.5 °F /  20.3 °C 19.0 °F /  -7.2 °C 30.01in /  1016.1hPa Calm   1.0mph /  1.6km/h 15% 0.00in /  0mm 5.0 W/m2
17:30 67.8 °F /  19.9 °C 19.9 °F /  -6.7 °C 30.02in /  1016.5hPa Calm     16% 0.00in /  0mm 0.0 W/m2
17:36 67.3 °F /  19.6 °C 21.0 °F /  -6.1 °C 30.02in /  1016.5hPa Calm     17% 0.00in /  0mm 0.0 W/m2
17:42 66.4 °F /  19.1 °C 20.3 °F /  -6.5 °C 30.02in /  1016.5hPa Calm     17% 0.00in /  0mm 0.0 W/m2
17:48 65.5 °F /  18.6 °C 20.8 °F /  -6.2 °C 30.02in /  1016.5hPa Calm     18% 0.00in /  0mm 0.0 W/m2
17:54 64.6 °F /  18.1 °C 21.4 °F /  -5.9 °C 30.02in /  1016.5hPa Calm     19% 0.00in /  0mm 0.0 W/m2
18:00 63.7 °F /  17.6 °C 20.7 °F /  -6.3 °C 30.02in /  1016.5hPa Calm     19% 0.00in /  0mm 0.0 W/m2
18:06 62.8 °F /  17.1 °C 21.0 °F /  -6.1 °C 30.02in /  1016.5hPa Calm     20% 0.00in /  0mm 0.0 W/m2
18:12 61.9 °F /  16.6 °C 21.6 °F /  -5.8 °C 30.02in /  1016.5hPa Calm     21% 0.00in /  0mm 0.0 W/m2
18:19 61.0 °F /  16.1 °C 21.9 °F /  -5.6 °C 30.02in /  1016.5hPa Calm     22% 0.00in /  0mm 0.0 W/m2
18:25 60.3 °F /  15.7 °C 21.2 °F /  -6 °C 30.03in /  1016.8hPa Calm     22% 0.00in /  0mm 0.0 W/m2
18:31 59.4 °F /  15.2 °C 21.6 °F /  -5.8 °C 30.03in /  1016.8hPa Calm     23% 0.00in /  0mm 0.0 W/m2
18:37 58.6 °F /  14.8 °C 21.9 °F /  -5.6 °C 30.03in /  1016.8hPa Calm     24% 0.00in /  0mm 0.0 W/m2
18:43 57.9 °F /  14.4 °C 21.4 °F /  -5.9 °C 30.03in /  1016.8hPa Calm     24% 0.00in /  0mm 0.0 W/m2
18:49 57.2 °F /  14 °C 21.7 °F /  -5.7 °C 30.03in /  1016.8hPa Calm   1.0mph /  1.6km/h 25% 0.00in /  0mm 0.0 W/m2
18:55 56.7 °F /  13.7 °C 21.2 °F /  -6 °C 30.04in /  1017.2hPa Calm     25% 0.00in /  0mm 0.0 W/m2
19:01 56.1 °F /  13.4 °C 20.8 °F /  -6.2 °C 30.04in /  1017.2hPa Calm     25% 0.00in /  0mm 0.0 W/m2
19:08 55.8 °F /  13.2 °C 20.5 °F /  -6.4 °C 30.04in /  1017.2hPa Calm     25% 0.00in /  0mm 0.0 W/m2
19:13 55.2 °F /  12.9 °C 20.8 °F /  -6.2 °C 30.04in /  1017.2hPa Calm     26% 0.00in /  0mm 0.0 W/m2
19:20 54.9 °F /  12.7 °C 20.7 °F /  -6.3 °C 30.05in /  1017.5hPa Calm     26% 0.00in /  0mm 0.0 W/m2
19:26 54.3 °F /  12.4 °C 20.1 °F /  -6.6 °C 30.05in /  1017.5hPa Calm     26% 0.00in /  0mm 0.0 W/m2
19:32 53.8 °F /  12.1 °C 20.7 °F /  -6.3 °C 30.06in /  1017.8hPa Calm     27% 0.00in /  0mm 0.0 W/m2
19:38 53.4 °F /  11.9 °C 21.2 °F /  -6 °C 30.06in /  1017.8hPa Calm     28% 0.00in /  0mm 0.0 W/m2
19:44 53.1 °F /  11.7 °C 20.8 °F /  -6.2 °C 30.06in /  1017.8hPa Calm     28% 0.00in /  0mm 0.0 W/m2
19:50 52.5 °F /  11.4 °C 20.3 °F /  -6.5 °C 30.07in /  1018.2hPa Calm     28% 0.00in /  0mm 0.0 W/m2
19:59 52.2 °F /  11.2 °C 20.1 °F /  -6.6 °C 30.07in /  1018.2hPa Calm     28% 0.00in /  0mm 0.0 W/m2
20:05 51.8 °F /  11 °C 19.8 °F /  -6.8 °C 30.07in /  1018.2hPa Calm     28% 0.00in /  0mm 0.0 W/m2
20:11 51.4 °F /  10.8 °C 19.4 °F /  -7 °C 30.07in /  1018.2hPa Calm     28% 0.00in /  0mm 0.0 W/m2
20:17 51.4 °F /  10.8 °C 19.4 °F /  -7 °C 30.08in /  1018.5hPa Calm   1.0mph /  1.6km/h 28% 0.00in /  0mm 0.0 W/m2
20:23 50.7 °F /  10.4 °C 19.6 °F /  -6.9 °C 30.08in /  1018.5hPa ESE 0.9mph /  1.4km/h 1.0mph /  1.6km/h 29% 0.00in /  0mm 0.0 W/m2
20:29 50.5 °F /  10.3 °C 19.4 °F /  -7 °C 30.08in /  1018.5hPa East 0.9mph /  1.4km/h 1.0mph /  1.6km/h 29% 0.00in /  0mm 0.0 W/m2
20:35 50.5 °F /  10.3 °C 19.4 °F /  -7 °C 30.08in /  1018.5hPa Calm   2.0mph /  3.2km/h 29% 0.00in /  0mm 0.0 W/m2
20:42 50.5 °F /  10.3 °C 19.4 °F /  -7 °C 30.08in /  1018.5hPa Calm   2.0mph /  3.2km/h 29% 0.00in /  0mm 0.0 W/m2
20:48 50.5 °F /  10.3 °C 19.4 °F /  -7 °C 30.09in /  1018.8hPa Calm   1.0mph /  1.6km/h 29% 0.00in /  0mm 0.0 W/m2
20:54 50.7 °F /  10.4 °C 19.6 °F /  -6.9 °C 30.09in /  1018.8hPa Calm   1.0mph /  1.6km/h 29% 0.00in /  0mm 0.0 W/m2
21:00 50.7 °F /  10.4 °C 18.9 °F /  -7.3 °C 30.09in /  1018.8hPa Calm   1.0mph /  1.6km/h 28% 0.00in /  0mm 0.0 W/m2
21:06 50.7 °F /  10.4 °C 19.6 °F /  -6.9 °C 30.09in /  1018.8hPa Calm     29% 0.00in /  0mm 0.0 W/m2
21:12 50.7 °F /  10.4 °C 19.6 °F /  -6.9 °C 30.09in /  1018.8hPa Calm     29% 0.00in /  0mm 0.0 W/m2
21:18 50.4 °F /  10.2 °C 19.2 °F /  -7.1 °C 30.09in /  1018.8hPa Calm     29% 0.00in /  0mm 0.0 W/m2
21:25 50.2 °F /  10.1 °C 19.2 °F /  -7.1 °C 30.09in /  1018.8hPa Calm     29% 0.00in /  0mm 0.0 W/m2
21:31 50.0 °F /  10 °C 19.8 °F /  -6.8 °C 30.09in /  1018.8hPa Calm     30% 0.00in /  0mm 0.0 W/m2
21:37 49.6 °F /  9.8 °C 20.3 °F /  -6.5 °C 30.09in /  1018.8hPa Calm   1.0mph /  1.6km/h 31% 0.00in /  0mm 0.0 W/m2
21:43 49.1 °F /  9.5 °C 19.8 °F /  -6.8 °C 30.09in /  1018.8hPa Calm     31% 0.00in /  0mm 0.0 W/m2
21:49 48.6 °F /  9.2 °C 19.9 °F /  -6.7 °C 30.09in /  1018.8hPa Calm     32% 0.00in /  0mm 0.0 W/m2
21:55 48.2 °F /  9 °C 19.0 °F /  -7.2 °C 30.09in /  1018.8hPa Calm   1.0mph /  1.6km/h 31% 0.00in /  0mm 0.0 W/m2
22:01 47.8 °F /  8.8 °C 19.4 °F /  -7 °C 30.09in /  1018.8hPa Calm     32% 0.00in /  0mm 0.0 W/m2
22:08 47.5 °F /  8.6 °C 19.8 °F /  -6.8 °C 30.09in /  1018.8hPa Calm     33% 0.00in /  0mm 0.0 W/m2
22:14 47.1 °F /  8.4 °C 19.4 °F /  -7 °C 30.09in /  1018.8hPa Calm     33% 0.00in /  0mm 0.0 W/m2
22:20 46.9 °F /  8.3 °C 19.4 °F /  -7 °C 30.09in /  1018.8hPa Calm     33% 0.00in /  0mm 0.0 W/m2
22:26 46.8 °F /  8.2 °C 19.2 °F /  -7.1 °C 30.09in /  1018.8hPa Calm     33% 0.00in /  0mm 0.0 W/m2
22:34 46.4 °F /  8 °C 19.6 °F /  -6.9 °C 30.09in /  1018.8hPa Calm     34% 0.00in /  0mm 0.0 W/m2
22:40 46.0 °F /  7.8 °C 19.2 °F /  -7.1 °C 30.09in /  1018.8hPa Calm     34% 0.00in /  0mm 0.0 W/m2
22:47 45.9 °F /  7.7 °C 19.8 °F /  -6.8 °C 30.09in /  1018.8hPa Calm     35% 0.00in /  0mm 0.0 W/m2
22:53 45.7 °F /  7.6 °C 19.6 °F /  -6.9 °C 30.09in /  1018.8hPa Calm     35% 0.00in /  0mm 0.0 W/m2
22:59 45.3 °F /  7.4 °C 19.9 °F /  -6.7 °C 30.09in /  1018.8hPa Calm     36% 0.00in /  0mm 0.0 W/m2
23:05 45.0 °F /  7.2 °C 20.3 °F /  -6.5 °C 30.09in /  1018.8hPa Calm     37% 0.00in /  0mm 0.0 W/m2
23:11 44.8 °F /  7.1 °C 20.1 °F /  -6.6 °C 30.09in /  1018.8hPa Calm     37% 0.00in /  0mm 0.0 W/m2
23:17 44.6 °F /  7 °C 19.9 °F /  -6.7 °C 30.09in /  1018.8hPa Calm     37% 0.00in /  0mm 0.0 W/m2
23:23 44.4 °F /  6.9 °C 19.8 °F /  -6.8 °C 30.09in /  1018.8hPa Calm     37% 0.00in /  0mm 0.0 W/m2
23:29 44.4 °F /  6.9 °C 19.8 °F /  -6.8 °C 30.09in /  1018.8hPa Calm     37% 0.00in /  0mm 0.0 W/m2
23:35 44.4 °F /  6.9 °C 19.8 °F /  -6.8 °C 30.09in /  1018.8hPa Calm     37% 0.00in /  0mm 0.0 W/m2
23:41 44.4 °F /  6.9 °C 20.5 °F /  -6.4 °C 30.09in /  1018.8hPa Calm     38% 0.00in /  0mm 0.0 W/m2
23:47 44.4 °F /  6.9 °C 21.0 °F /  -6.1 °C 30.09in /  1018.8hPa Calm   1.0mph /  1.6km/h 39% 0.00in /  0mm 0.0 W/m2
23:54 44.4 °F /  6.9 °C 21.0 °F /  -6.1 °C 30.08in /  1018.5hPa Calm     39% 0.00in /  0mm 0.0 W/m2
Olympia, Windhoek, Namibia
Compliments of Weather Underground - 3 mb